Time,TemperatureF,DewpointF,PressureIn,WindDirection,WindDirectionDegrees,WindSpeedMPH,WindSpeedGustMPH,Humidity,HourlyPrecipIn,Conditions,Clouds,dailyrainin,SoftwareType,DateUTC
2013-05-08 00:07:00,56.7,55.6,30.07,NNE,22,0.0,-999.0,96,-99.99,,,0.00,Acu-Link.com,2013-05-08 04:07:00,
2013-05-08 00:23:00,56.7,55.6,30.07,ESE,112,0.0,-999.0,96,-99.99,,,0.00,Acu-Link.com,2013-05-08 04:23:00,
2013-05-08 00:38:00,56.7,55.6,30.07,ENE,67,0.0,-999.0,96,-99.99,,,0.00,Acu-Link.com,2013-05-08 04:38:00,
2013-05-08 00:53:00,56.7,55.6,30.06,ENE,67,0.0,-999.0,96,-99.99,,,0.00,Acu-Link.com,2013-05-08 04:53:00,
2013-05-08 01:09:00,56.5,55.4,30.06,NE,45,0.0,-999.0,96,-99.99,,,0.00,Acu-Link.com,2013-05-08 05:09:00,
2013-05-08 01:24:00,56.3,55.2,30.05,NE,45,1.1,-999.0,96,-99.99,,,0.00,Acu-Link.com,2013-05-08 05:24:00,
2013-05-08 01:39:00,56.1,55.3,30.04,NNW,337,0.0,-999.0,97,-99.99,,,0.00,Acu-Link.com,2013-05-08 05:39:00,
2013-05-08 01:55:00,55.9,55.1,30.05,SSW,202,0.0,-999.0,97,-99.99,,,0.00,Acu-Link.com,2013-05-08 05:55:00,
2013-05-08 02:10:00,56.3,55.7,30.04,NE,45,0.0,-999.0,98,-99.99,,,0.00,Acu-Link.com,2013-05-08 06:10:00,
2013-05-08 02:25:00,56.5,55.9,30.04,NW,315,0.0,-999.0,98,-99.99,,,0.00,Acu-Link.com,2013-05-08 06:25:00,
2013-05-08 02:40:00,56.3,55.7,30.04,NW,315,0.0,-999.0,98,-99.99,,,0.00,Acu-Link.com,2013-05-08 06:40:00,
2013-05-08 02:55:00,56.1,55.5,30.04,NE,45,0.0,-999.0,98,-99.99,,,0.00,Acu-Link.com,2013-05-08 06:55:00,
2013-05-08 03:11:00,55.8,55.2,30.03,NE,45,0.0,-999.0,98,-99.99,,,0.00,Acu-Link.com,2013-05-08 07:11:00,
2013-05-08 03:26:00,56.1,55.5,30.03,NNE,22,0.0,-999.0,98,-99.99,,,0.00,Acu-Link.com,2013-05-08 07:26:00,
2013-05-08 03:41:00,55.8,55.5,30.03,WNW,292,0.0,-999.0,99,-99.99,,,0.00,Acu-Link.com,2013-05-08 07:41:00,
2013-05-08 03:57:00,55.2,54.9,30.03,NNE,22,0.0,-999.0,99,-99.99,,,0.00,Acu-Link.com,2013-05-08 07:57:00,
2013-05-08 04:13:00,55.0,54.7,30.02,WNW,292,0.0,-999.0,99,-99.99,,,0.00,Acu-Link.com,2013-05-08 08:13:00,
2013-05-08 04:28:00,54.9,54.3,30.03,North,0,0.0,-999.0,98,-99.99,,,0.00,Acu-Link.com,2013-05-08 08:28:00,
2013-05-08 04:43:00,54.1,53.5,30.03,West,270,0.0,-999.0,98,-99.99,,,0.00,Acu-Link.com,2013-05-08 08:43:00,
2013-05-08 04:58:00,54.3,54.0,30.03,NE,45,0.0,-999.0,99,-99.99,,,0.00,Acu-Link.com,2013-05-08 08:58:00,
2013-05-08 05:14:00,55.4,55.1,30.03,NNE,22,0.0,-999.0,99,-99.99,,,0.00,Acu-Link.com,2013-05-08 09:14:00,
2013-05-08 05:29:00,55.9,55.6,30.04,NE,45,0.0,-999.0,99,-99.99,,,0.00,Acu-Link.com,2013-05-08 09:29:00,
2013-05-08 05:45:00,56.5,56.2,30.04,NNE,22,2.2,-999.0,99,-99.99,,,0.00,Acu-Link.com,2013-05-08 09:45:00,
2013-05-08 06:00:00,57.0,56.7,30.05,NNE,22,1.7,-999.0,99,-99.99,,,0.00,Acu-Link.com,2013-05-08 10:00:00,
2013-05-08 06:15:00,57.4,57.1,30.05,NNE,22,1.1,-999.0,99,-99.99,,,0.00,Acu-Link.com,2013-05-08 10:15:00,
2013-05-08 06:30:00,57.9,57.1,30.05,NNE,22,1.7,-999.0,97,-99.99,,,0.00,Acu-Link.com,2013-05-08 10:30:00,
2013-05-08 06:46:00,59.2,57.8,30.06,North,0,1.7,-999.0,95,-99.99,,,0.00,Acu-Link.com,2013-05-08 10:46:00,
2013-05-08 07:01:00,60.3,58.6,30.06,East,90,0.0,-999.0,94,-99.99,,,0.00,Acu-Link.com,2013-05-08 11:01:00,
2013-05-08 07:16:00,61.0,58.7,30.07,NNE,22,2.7,-999.0,92,-99.99,,,0.00,Acu-Link.com,2013-05-08 11:16:00,
2013-05-08 07:31:00,62.2,59.2,30.07,NNE,22,0.0,-999.0,90,-99.99,,,0.00,Acu-Link.com,2013-05-08 11:31:00,
2013-05-08 07:47:00,63.5,59.9,30.07,NNE,22,1.7,-999.0,88,-99.99,,,0.00,Acu-Link.com,2013-05-08 11:47:00,
2013-05-08 08:02:00,64.9,60.6,30.06,NE,45,3.2,-999.0,86,-99.99,,,0.00,Acu-Link.com,2013-05-08 12:02:00,
2013-05-08 08:17:00,66.6,61.3,30.06,NNE,22,3.7,-999.0,83,-99.99,,,0.00,Acu-Link.com,2013-05-08 12:17:00,
2013-05-08 08:32:00,66.7,61.4,30.07,ENE,67,4.2,-999.0,83,-99.99,,,0.00,Acu-Link.com,2013-05-08 12:32:00,
2013-05-08 08:47:00,66.0,61.4,30.06,West,270,2.7,-999.0,85,-99.99,,,0.00,Acu-Link.com,2013-05-08 12:47:00,
2013-05-08 09:03:00,64.9,60.9,30.06,ENE,67,2.7,-999.0,87,-99.99,,,0.00,Acu-Link.com,2013-05-08 13:03:00,
2013-05-08 09:18:00,66.7,61.4,30.08,NE,45,4.7,-999.0,83,-99.99,,,0.00,Acu-Link.com,2013-05-08 13:18:00,
2013-05-08 09:33:00,65.1,60.8,30.07,South,180,1.7,-999.0,86,-99.99,,,0.00,Acu-Link.com,2013-05-08 13:33:00,
2013-05-08 09:48:00,64.6,60.3,30.07,ENE,67,4.2,-999.0,86,-99.99,,,0.00,Acu-Link.com,2013-05-08 13:48:00,
2013-05-08 10:04:00,64.0,59.7,30.07,East,90,2.7,-999.0,86,-99.99,,,0.00,Acu-Link.com,2013-05-08 14:04:00,
2013-05-08 10:19:00,64.2,60.2,30.07,East,90,1.7,-999.0,87,-99.99,,,0.00,Acu-Link.com,2013-05-08 14:19:00,
2013-05-08 10:34:00,63.9,60.0,30.06,ESE,112,5.3,-999.0,87,-99.99,,,0.00,Acu-Link.com,2013-05-08 14:34:00,
2013-05-08 10:50:00,63.5,59.6,30.07,East,90,4.2,-999.0,87,-99.99,,,0.00,Acu-Link.com,2013-05-08 14:50:00,
2013-05-08 11:05:00,63.9,60.3,30.06,ESE,112,3.2,-999.0,88,-99.99,,,0.00,Acu-Link.com,2013-05-08 15:05:00,
2013-05-08 11:20:00,63.5,59.9,30.05,SE,135,9.9,-999.0,88,-99.99,,,0.00,Acu-Link.com,2013-05-08 15:20:00,
2013-05-08 11:35:00,63.0,60.3,30.05,NE,45,2.7,-999.0,91,-99.99,,,0.00,Acu-Link.com,2013-05-08 15:35:00,
2013-05-08 11:51:00,63.9,61.2,30.04,East,90,3.7,-999.0,91,-99.99,,,0.00,Acu-Link.com,2013-05-08 15:51:00,
2013-05-08 12:06:00,65.1,61.5,30.03,NNW,337,7.3,-999.0,88,-99.99,,,0.00,Acu-Link.com,2013-05-08 16:06:00,
2013-05-08 12:21:00,64.2,60.9,30.03,NNE,22,9.4,-999.0,89,-99.99,,,0.01,Acu-Link.com,2013-05-08 16:21:00,
2013-05-08 12:36:00,64.2,60.6,30.02,SE,135,7.8,-999.0,88,-99.99,,,0.01,Acu-Link.com,2013-05-08 16:36:00,
2013-05-08 12:51:00,63.0,59.7,30.02,NW,315,5.8,-999.0,89,-99.99,,,0.01,Acu-Link.com,2013-05-08 16:51:00,
2013-05-08 13:07:00,64.0,60.4,30.01,ENE,67,8.3,-999.0,88,-99.99,,,0.01,Acu-Link.com,2013-05-08 17:07:00,
2013-05-08 13:22:00,64.8,60.5,30.02,South,180,7.3,-999.0,86,-99.99,,,0.01,Acu-Link.com,2013-05-08 17:22:00,
2013-05-08 13:37:00,63.5,59.9,30.01,NNW,337,3.2,-999.0,88,-99.99,,,0.01,Acu-Link.com,2013-05-08 17:37:00,
2013-05-08 13:53:00,63.9,60.0,30.00,ESE,112,6.3,-999.0,87,-99.99,,,0.01,Acu-Link.com,2013-05-08 17:53:00,
2013-05-08 14:08:00,61.3,59.3,30.00,SSE,157,8.3,-999.0,93,-99.99,,,0.01,Acu-Link.com,2013-05-08 18:08:00,
2013-05-08 14:23:00,59.9,58.5,29.99,ENE,67,8.3,-999.0,95,-99.99,,,0.10,Acu-Link.com,2013-05-08 18:23:00,
2013-05-08 14:38:00,60.1,58.7,30.00,SSE,157,5.3,-999.0,95,-99.99,,,0.17,Acu-Link.com,2013-05-08 18:38:00,
2013-05-08 14:54:00,59.4,58.0,30.00,SSE,157,4.7,-999.0,95,-99.99,,,0.17,Acu-Link.com,2013-05-08 18:54:00,
2013-05-08 15:09:00,58.5,57.1,29.99,NNE,22,5.8,-999.0,95,-99.99,,,0.17,Acu-Link.com,2013-05-08 19:09:00,
2013-05-08 15:24:00,58.8,57.7,30.00,ESE,112,8.3,-999.0,96,-99.99,,,0.17,Acu-Link.com,2013-05-08 19:24:00,
2013-05-08 15:40:00,59.4,58.3,30.00,South,180,3.7,-999.0,96,-99.99,,,0.17,Acu-Link.com,2013-05-08 19:40:00,
2013-05-08 15:55:00,59.0,57.9,29.99,NE,45,8.3,-999.0,96,-99.99,,,0.17,Acu-Link.com,2013-05-08 19:55:00,
2013-05-08 16:10:00,58.6,57.5,30.00,East,90,4.2,-999.0,96,-99.99,,,0.17,Acu-Link.com,2013-05-08 20:10:00,
2013-05-08 16:25:00,58.3,57.2,29.99,NE,45,2.2,-999.0,96,-99.99,,,0.17,Acu-Link.com,2013-05-08 20:25:00,
2013-05-08 16:41:00,58.3,57.2,29.99,NNW,337,3.2,-999.0,96,-99.99,,,0.17,Acu-Link.com,2013-05-08 20:41:00,
2013-05-08 16:56:00,58.3,57.2,29.98,East,90,0.0,-999.0,96,-99.99,,,0.17,Acu-Link.com,2013-05-08 20:56:00,
2013-05-08 17:11:00,58.6,57.5,29.98,ESE,112,1.1,-999.0,96,-99.99,,,0.17,Acu-Link.com,2013-05-08 21:11:00,
2013-05-08 17:26:00,58.8,57.7,29.98,NNE,22,1.7,-999.0,96,-99.99,,,0.17,Acu-Link.com,2013-05-08 21:26:00,
2013-05-08 17:42:00,59.0,57.9,29.97,ESE,112,3.7,-999.0,96,-99.99,,,0.17,Acu-Link.com,2013-05-08 21:42:00,
2013-05-08 17:57:00,59.0,57.9,29.97,NE,45,1.7,-999.0,96,-99.99,,,0.17,Acu-Link.com,2013-05-08 21:57:00,
2013-05-08 18:12:00,59.0,57.9,29.96,ESE,112,3.7,-999.0,96,-99.99,,,0.17,Acu-Link.com,2013-05-08 22:12:00,
2013-05-08 18:27:00,58.8,57.7,29.95,NNE,22,2.7,-999.0,96,-99.99,,,0.17,Acu-Link.com,2013-05-08 22:27:00,
2013-05-08 18:42:00,58.8,57.7,29.96,ESE,112,0.0,-999.0,96,-99.99,,,0.17,Acu-Link.com,2013-05-08 22:42:00,
2013-05-08 18:58:00,58.5,57.4,29.96,NW,315,0.0,-999.0,96,-99.99,,,0.17,Acu-Link.com,2013-05-08 22:58:00,
2013-05-08 19:13:00,58.1,57.0,29.96,SSW,202,3.2,-999.0,96,-99.99,,,0.17,Acu-Link.com,2013-05-08 23:13:00,
2013-05-08 19:28:00,57.6,56.5,29.96,East,90,2.2,-999.0,96,-99.99,,,0.17,Acu-Link.com,2013-05-08 23:28:00,
2013-05-08 19:44:00,57.0,56.2,29.97,NNE,22,2.7,-999.0,97,-99.99,,,0.17,Acu-Link.com,2013-05-08 23:44:00,
2013-05-08 19:59:00,56.7,55.9,29.97,ENE,67,2.2,-999.0,97,-99.99,,,0.17,Acu-Link.com,2013-05-08 23:59:00,
2013-05-08 20:14:00,56.3,55.5,29.97,SSW,202,2.2,-999.0,97,-99.99,,,0.17,Acu-Link.com,2013-05-09 00:14:00,
2013-05-08 20:30:00,55.9,55.3,29.96,ESE,112,2.2,-999.0,98,-99.99,,,0.17,Acu-Link.com,2013-05-09 00:30:00,
2013-05-08 20:45:00,55.8,55.2,29.97,NNE,22,1.1,-999.0,98,-99.99,,,0.17,Acu-Link.com,2013-05-09 00:45:00,
2013-05-08 21:00:00,55.4,54.8,29.97,NE,45,1.7,-999.0,98,-99.99,,,0.17,Acu-Link.com,2013-05-09 01:00:00,
2013-05-08 21:16:00,55.4,54.8,29.96,SSW,202,0.0,-999.0,98,-99.99,,,0.17,Acu-Link.com,2013-05-09 01:16:00,
2013-05-08 21:31:00,55.4,54.8,29.97,ESE,112,0.0,-999.0,98,-99.99,,,0.17,Acu-Link.com,2013-05-09 01:31:00,
2013-05-08 21:47:00,55.4,54.8,29.97,SSE,157,0.0,-999.0,98,-99.99,,,0.17,Acu-Link.com,2013-05-09 01:47:00,
2013-05-08 22:02:00,55.4,55.1,29.97,SSE,157,0.0,-999.0,99,-99.99,,,0.17,Acu-Link.com,2013-05-09 02:02:00,
2013-05-08 22:17:00,55.8,55.5,29.96,North,0,1.1,-999.0,99,-99.99,,,0.17,Acu-Link.com,2013-05-09 02:17:00,
2013-05-08 22:32:00,55.8,55.5,29.97,NE,45,0.0,-999.0,99,-99.99,,,0.17,Acu-Link.com,2013-05-09 02:32:00,
2013-05-08 22:48:00,55.8,55.5,29.96,NE,45,0.0,-999.0,99,-99.99,,,0.17,Acu-Link.com,2013-05-09 02:48:00,
2013-05-08 23:03:00,55.8,55.5,29.95,NE,45,0.0,-999.0,99,-99.99,,,0.17,Acu-Link.com,2013-05-09 03:03:00,
2013-05-08 23:18:00,55.9,55.6,29.96,ESE,112,0.0,-999.0,99,-99.99,,,0.17,Acu-Link.com,2013-05-09 03:18:00,
2013-05-08 23:34:00,55.9,55.6,29.96,NW,315,0.0,-999.0,99,-99.99,,,0.17,Acu-Link.com,2013-05-09 03:34:00,
2013-05-08 23:49:00,56.1,55.8,29.95,ENE,67,0.0,-999.0,99,-99.99,,,0.17,Acu-Link.com,2013-05-09 03:49:00,